Time;durP1;ratioP1;P1;durP2;ratioP2;P2;SDS_P1;SDS_P2;PMS_P1;PMS_P2;Temp;Humidity;BMP_temperature;BMP_pressure;BME280_temperature;BME280_humidity;BME280_pressure;Samples;Min_cycle;Max_cycle;Signal;HPM_P1;HPM_P2
2021/09/19 00:01:03;;;;;;;3.30;1.42;;;;;;;12.36;97.12;98535.59;1630995;86;21970;-74
2021/09/19 00:03:30;;;;;;;5.00;1.52;;;;;;;12.33;96.94;98533.55;1637254;86;21051;-78
2021/09/19 00:05:58;;;;;;;3.90;1.45;;;;;;;12.32;96.84;98536.07;1629126;86;21212;-79
2021/09/19 00:08:27;;;;;;;5.92;1.42;;;;;;;12.32;96.97;98539.39;1647861;86;21146;-78
2021/09/19 00:10:55;;;;;;;3.90;1.65;;;;;;;12.30;96.74;98546.63;1645589;86;21020;-78
2021/09/19 00:13:23;;;;;;;2.22;1.45;;;;;;;12.29;96.46;98546.41;1629340;87;21007;-78
2021/09/19 00:15:50;;;;;;;4.08;1.77;;;;;;;12.28;96.41;98543.42;1637087;86;21524;-78
2021/09/19 00:18:18;;;;;;;4.50;1.60;;;;;;;12.28;96.61;98550.30;1617492;87;21053;-77
2021/09/19 00:20:46;;;;;;;4.60;1.60;;;;;;;12.27;96.55;98545.95;1640314;86;21100;-78
2021/09/19 00:23:15;;;;;;;7.25;2.00;;;;;;;12.27;96.39;98545.95;1643224;86;21055;-77
2021/09/19 00:25:43;;;;;;;5.20;1.90;;;;;;;12.27;96.18;98539.65;1641514;86;21637;-77
2021/09/19 00:28:10;;;;;;;4.40;1.32;;;;;;;12.26;96.20;98543.55;1641354;86;21187;-78
2021/09/19 00:30:38;;;;;;;7.22;1.60;;;;;;;12.27;96.07;98542.40;1641473;86;21486;-78
2021/09/19 00:33:06;;;;;;;3.47;1.45;;;;;;;12.27;96.14;98539.65;1643315;86;20983;-77
2021/09/19 00:35:33;;;;;;;2.20;1.15;;;;;;;12.27;96.21;98538.27;1634542;87;21034;-77
2021/09/19 00:37:59;;;;;;;2.35;1.25;;;;;;;12.22;96.37;98530.49;1627568;88;21512;-78
2021/09/19 00:40:26;;;;;;;2.47;1.32;;;;;;;12.18;96.90;98532.34;1645785;86;21534;-77
2021/09/19 00:42:52;;;;;;;3.00;1.50;;;;;;;12.15;97.35;98538.55;1631582;86;21275;-78
2021/09/19 00:45:21;;;;;;;4.92;1.40;;;;;;;12.12;97.68;98538.48;1612210;88;21075;-78
2021/09/19 00:47:48;;;;;;;3.40;1.60;;;;;;;12.12;98.52;98534.35;1639233;86;21102;-78
2021/09/19 00:50:19;;;;;;;3.98;1.70;;;;;;;12.11;98.81;98536.30;1634837;86;21129;-78
2021/09/19 00:52:46;;;;;;;3.42;1.17;;;;;;;12.12;98.82;98529.66;1638707;87;21546;-77
2021/09/19 00:55:14;;;;;;;4.62;1.80;;;;;;;12.13;98.97;98533.20;1646321;86;21541;-77
2021/09/19 00:57:44;;;;;;;3.00;1.77;;;;;;;12.13;99.13;98527.09;1610332;87;21082;-77
2021/09/19 01:00:16;;;;;;;2.60;1.75;;;;;;;12.14;99.08;98527.89;1637785;86;21055;-77
2021/09/19 01:02:43;;;;;;;5.67;1.85;;;;;;;12.14;99.22;98522.39;1622605;86;21095;-76
2021/09/19 01:05:12;;;;;;;1.87;1.40;;;;;;;12.13;99.66;98522.20;1636617;86;21521;-77
2021/09/19 01:07:40;;;;;;;9.95;1.60;;;;;;;12.14;100.00;98527.89;1620181;88;21546;-78
2021/09/19 01:10:09;;;;;;;3.70;1.80;;;;;;;12.13;100.00;98527.09;1599997;88;21041;-78
2021/09/19 01:12:39;;;;;;;2.87;1.75;;;;;;;12.11;100.00;98521.75;1599890;89;21010;-79
2021/09/19 01:15:09;;;;;;;3.12;1.40;;;;;;;12.09;100.00;98527.59;1600168;89;21089;-78
2021/09/19 01:17:39;;;;;;;3.00;1.57;;;;;;;12.08;100.00;98530.13;1599967;89;21064;-77
2021/09/19 01:20:13;;;;;;;1.82;1.62;;;;;;;12.07;100.00;98526.34;1599925;89;21639;-76
2021/09/19 01:22:39;;;;;;;7.92;2.58;;;;;;;12.06;100.00;98520.05;1600188;89;20989;-77
2021/09/19 01:25:09;;;;;;;4.90;1.80;;;;;;;12.05;100.00;98522.57;1599970;89;21105;-77
2021/09/19 01:27:38;;;;;;;2.83;1.75;;;;;;;12.03;100.00;98519.38;1596978;89;21050;-77
2021/09/19 01:30:07;;;;;;;5.50;1.70;;;;;;;12.02;100.00;98525.22;1610307;87;21077;-76
2021/09/19 01:32:34;;;;;;;5.72;2.08;;;;;;;12.03;100.00;98530.37;1605829;86;21522;-76
2021/09/19 01:35:01;;;;;;;6.20;2.42;;;;;;;12.04;100.00;98531.17;1628957;87;21138;-76
2021/09/19 01:37:27;;;;;;;7.20;2.22;;;;;;;12.05;100.00;98527.27;1628784;88;21008;-77
2021/09/19 01:39:55;;;;;;;4.95;2.27;;;;;;;12.06;100.00;98531.05;1626262;87;20966;-77
2021/09/19 01:42:22;;;;;;;4.22;2.40;;;;;;;12.08;100.00;98526.00;1652228;86;21066;-77
2021/09/19 01:44:48;;;;;;;3.17;2.42;;;;;;;12.07;100.00;98519.47;1641353;86;20974;-80
2021/09/19 01:47:15;;;;;;;4.37;2.00;;;;;;;12.07;100.00;98518.09;1629178;86;21038;-78
2021/09/19 01:49:47;;;;;;;3.37;1.90;;;;;;;12.08;100.00;98521.07;1640743;86;21055;-78
2021/09/19 01:52:15;;;;;;;5.20;2.10;;;;;;;12.07;100.00;98520.84;1617722;88;21083;-78
2021/09/19 01:54:42;;;;;;;4.15;2.22;;;;;;;12.07;100.00;98525.77;1603988;88;21201;-78
2021/09/19 01:57:10;;;;;;;3.50;2.02;;;;;;;12.07;100.00;98515.34;1602410;88;21131;-78
2021/09/19 01:59:36;;;;;;;3.20;2.08;;;;;;;12.05;100.00;98506.64;1611790;86;21582;-78
2021/09/19 02:02:03;;;;;;;4.85;2.25;;;;;;;12.08;100.00;98510.06;1649282;86;21017;-78
2021/09/19 02:04:31;;;;;;;4.37;1.98;;;;;;;12.08;100.00;98501.23;1646371;86;21019;-79
2021/09/19 02:06:58;;;;;;;4.22;1.82;;;;;;;12.09;100.00;98507.55;1660087;85;21083;-77
2021/09/19 02:09:24;;;;;;;7.17;1.70;;;;;;;12.10;100.00;98506.39;1633603;87;21038;-86
2021/09/19 02:11:52;;;;;;;4.80;1.75;;;;;;;12.08;100.00;98499.87;1596640;89;21572;-79
2021/09/19 02:14:20;;;;;;;3.83;1.82;;;;;;;12.07;100.00;98506.52;1603211;89;21014;-79
2021/09/19 02:16:48;;;;;;;6.08;1.82;;;;;;;12.06;100.00;98502.16;1603065;89;20942;-79
2021/09/19 02:19:18;;;;;;;2.58;1.98;;;;;;;12.07;100.00;98509.84;1602975;89;21074;-78
2021/09/19 02:21:46;;;;;;;6.78;1.87;;;;;;;12.06;100.00;98510.42;1603057;89;21001;-78
2021/09/19 02:24:13;;;;;;;5.47;1.90;;;;;;;12.06;100.00;98510.42;1603364;89;21057;-79
2021/09/19 02:26:41;;;;;;;4.62;1.90;;;;;;;12.06;100.00;98504.11;1603505;89;21010;-79
2021/09/19 02:29:09;;;;;;;3.10;1.72;;;;;;;12.06;100.00;98509.05;1603107;89;20962;-79
2021/09/19 02:31:36;;;;;;;4.08;2.05;;;;;;;12.07;100.00;98503.77;1603294;89;20970;-78
2021/09/19 02:34:02;;;;;;;4.55;2.15;;;;;;;12.07;100.00;98503.77;1602923;89;21078;-78
2021/09/19 02:36:29;;;;;;;4.03;1.98;;;;;;;12.08;100.00;98507.31;1603324;89;21070;-77
2021/09/19 02:38:55;;;;;;;2.08;1.82;;;;;;;12.05;100.00;98510.19;1603173;89;21125;-78
2021/09/19 02:41:25;;;;;;;3.40;2.30;;;;;;;12.03;100.00;98507.56;1603107;89;22225;-78
2021/09/19 02:43:52;;;;;;;3.80;1.95;;;;;;;12.03;100.00;98503.44;1602813;89;21073;-79
2021/09/19 02:46:20;;;;;;;4.53;2.30;;;;;;;12.02;100.00;98503.22;1603134;89;21041;-78
2021/09/19 02:48:48;;;;;;;3.30;2.05;;;;;;;11.99;100.00;98507.47;1603049;89;21021;-78
2021/09/19 02:51:17;;;;;;;4.72;2.98;;;;;;;11.99;100.00;98503.91;1603215;89;21529;-74
2021/09/19 02:53:45;;;;;;;3.02;2.15;;;;;;;11.97;100.00;98503.47;1603306;89;21509;-78
2021/09/19 02:56:14;;;;;;;3.52;2.42;;;;;;;11.97;100.00;98503.47;1602888;87;21577;-77
2021/09/19 02:58:43;;;;;;;6.42;2.40;;;;;;;11.97;100.00;98502.09;1602918;89;21561;-76
2021/09/19 03:01:10;;;;;;;5.90;2.20;;;;;;;11.95;100.00;98501.06;1625982;87;21890;-76
2021/09/19 03:03:38;;;;;;;5.00;2.08;;;;;;;11.94;100.00;98506.91;1627270;88;20992;-77
2021/09/19 03:06:06;;;;;;;2.52;1.98;;;;;;;11.92;100.00;98499.02;1627230;88;21831;-74
2021/09/19 03:08:33;;;;;;;4.47;2.40;;;;;;;11.89;100.00;98495.02;1627298;88;21099;-75
2021/09/19 03:11:00;;;;;;;5.90;2.70;;;;;;;11.88;100.00;98502.23;1627309;88;21019;-74
2021/09/19 03:13:28;;;;;;;4.15;2.70;;;;;;;11.85;100.00;98498.23;1627176;88;21040;-77
2021/09/19 03:15:54;;;;;;;6.60;3.00;;;;;;;11.85;100.00;98496.86;1605471;88;21126;-77
2021/09/19 03:18:22;;;;;;;5.20;2.60;;;;;;;11.85;100.00;98497.44;1609859;88;21035;-75
2021/09/19 03:20:50;;;;;;;5.22;2.77;;;;;;;11.87;100.00;98503.39;1599302;89;20973;-74
2021/09/19 03:23:17;;;;;;;4.53;2.37;;;;;;;11.87;100.00;98504.77;1603218;89;21046;-74
2021/09/19 03:25:45;;;;;;;5.12;2.55;;;;;;;11.87;100.00;98503.39;1607022;88;21044;-87
2021/09/19 03:28:13;;;;;;;6.53;2.62;;;;;;;11.89;100.00;98505.21;1604751;89;21057;-74
2021/09/19 03:30:40;;;;;;;5.35;2.25;;;;;;;11.88;100.00;98509.91;1601685;89;22163;-73
2021/09/19 03:33:08;;;;;;;5.22;2.77;;;;;;;11.89;100.00;98507.96;1602019;89;21048;-73
2021/09/19 03:35:34;;;;;;;3.67;2.40;;;;;;;11.89;100.00;98512.89;1601861;89;21050;-75
2021/09/19 03:38:01;;;;;;;4.92;3.15;;;;;;;11.90;100.00;98514.48;1601855;89;22405;-74
2021/09/19 03:40:28;;;;;;;3.33;2.30;;;;;;;11.90;100.00;98518.61;1601799;89;21018;-75
2021/09/19 03:42:55;;;;;;;3.67;2.40;;;;;;;11.90;100.00;98519.19;1602202;87;21562;-75
2021/09/19 03:45:24;;;;;;;5.40;2.50;;;;;;;11.92;100.00;98517.47;1602495;89;21105;-76
2021/09/19 03:47:51;;;;;;;5.62;2.47;;;;;;;11.92;100.00;98519.64;1602927;89;21576;-74
2021/09/19 03:50:18;;;;;;;6.30;2.90;;;;;;;11.93;100.00;98517.11;1603480;89;21592;-74
2021/09/19 03:52:44;;;;;;;4.05;2.70;;;;;;;11.92;100.00;98512.77;1603655;89;20993;-79
2021/09/19 03:55:11;;;;;;;5.17;2.45;;;;;;;11.92;100.00;98513.34;1603402;89;21619;-80
2021/09/19 03:57:37;;;;;;;5.40;2.30;;;;;;;11.93;100.00;98515.73;1639943;85;21050;-81
2021/09/19 04:00:07;;;;;;;5.55;2.33;;;;;;;11.94;100.00;98513.79;1646089;86;20962;-78
2021/09/19 04:02:36;;;;;;;5.35;2.10;;;;;;;11.94;100.00;98513.79;1629498;85;21007;-79
2021/09/19 04:05:03;;;;;;;5.28;1.70;;;;;;;11.88;100.00;98507.73;1646794;87;21074;-80
2021/09/19 04:07:30;;;;;;;1.80;1.40;;;;;;;11.81;100.00;98509.70;1634602;86;21506;-79
2021/09/19 04:09:57;;;;;;;2.90;1.60;;;;;;;11.74;100.00;98505.34;1639648;86;20988;-79
2021/09/19 04:12:24;;;;;;;2.17;1.57;;;;;;;11.64;100.00;98500.33;1639892;86;21077;-77
2021/09/19 04:14:52;;;;;;;2.83;1.52;;;;;;;11.58;100.00;98503.89;1618651;87;21029;-83
2021/09/19 04:17:20;;;;;;;4.70;1.70;;;;;;;11.53;100.00;98511.61;1604789;86;20908;-83
2021/09/19 04:19:47;;;;;;;3.33;1.82;;;;;;;11.51;100.00;98509.20;1600133;88;21128;-81
2021/09/19 04:22:15;;;;;;;2.12;1.67;;;;;;;11.48;100.00;98509.90;1599243;86;21074;-81
2021/09/19 04:24:41;;;;;;;4.80;1.60;;;;;;;11.49;100.00;98507.95;1648240;86;21016;-81
2021/09/19 04:27:09;;;;;;;2.47;1.80;;;;;;;11.51;100.00;98509.20;1655625;85;21037;-75
2021/09/19 04:29:36;;;;;;;3.72;2.00;;;;;;;11.53;100.00;98503.36;1655756;86;21080;-75
2021/09/19 04:32:04;;;;;;;5.62;1.60;;;;;;;11.49;100.00;98495.02;1660117;85;20956;-75
2021/09/19 04:34:31;;;;;;;1.80;1.65;;;;;;;11.50;100.00;98497.19;1659246;85;20949;-74
2021/09/19 04:36:57;;;;;;;3.17;1.80;;;;;;;11.47;100.00;98493.75;1656226;85;20968;-74
2021/09/19 04:39:24;;;;;;;2.60;1.70;;;;;;;11.47;100.00;98496.50;1654779;86;21027;-76
2021/09/19 04:41:52;;;;;;;3.17;1.77;;;;;;;11.45;100.00;98496.05;1658146;86;20973;-74
2021/09/19 04:44:19;;;;;;;3.92;1.60;;;;;;;11.44;100.00;98489.75;1657224;86;21199;-74
2021/09/19 04:46:45;;;;;;;3.55;1.72;;;;;;;11.46;100.00;98497.66;1659292;86;21467;-74
2021/09/19 04:49:13;;;;;;;2.70;1.62;;;;;;;11.48;100.00;98493.98;1655842;85;20941;-74
2021/09/19 04:51:41;;;;;;;2.20;1.55;;;;;;;11.48;100.00;98493.98;1656756;85;20933;-75
2021/09/19 04:54:09;;;;;;;2.37;1.50;;;;;;;11.51;100.00;98498.78;1660886;85;21037;-75
2021/09/19 04:56:35;;;;;;;3.60;1.50;;;;;;;11.52;100.00;98492.14;1659671;86;21113;-74
2021/09/19 04:59:04;;;;;;;2.45;1.80;;;;;;;11.55;100.00;98498.31;1656828;86;21015;-74
2021/09/19 05:01:30;;;;;;;2.70;1.87;;;;;;;11.55;100.00;98496.95;1652741;85;21046;-74
2021/09/19 05:03:56;;;;;;;1.85;1.62;;;;;;;11.55;100.00;98494.97;1652604;86;20996;-75
2021/09/19 05:06:23;;;;;;;2.05;1.60;;;;;;;11.55;100.00;98490.84;1654192;86;20970;-74
2021/09/19 05:08:49;;;;;;;2.35;1.92;;;;;;;11.54;100.00;98492.02;1654792;86;21548;-74
2021/09/19 05:11:16;;;;;;;2.67;2.30;;;;;;;11.54;100.00;98492.59;1642479;86;21085;-75
2021/09/19 05:13:42;;;;;;;3.62;2.00;;;;;;;11.59;100.00;98493.13;1633478;86;21558;-75
2021/09/19 05:16:09;;;;;;;3.42;2.30;;;;;;;11.62;100.00;98488.88;1634347;86;21006;-75
2021/09/19 05:18:36;;;;;;;2.37;1.98;;;;;;;11.64;100.00;98493.45;1629223;86;21115;-74
2021/09/19 05:21:04;;;;;;;2.80;1.87;;;;;;;11.67;100.00;98491.39;1623147;85;20956;-74
2021/09/19 05:23:31;;;;;;;2.98;2.35;;;;;;;11.72;100.00;98493.09;1633762;86;21463;-75
2021/09/19 05:25:58;;;;;;;3.45;2.67;;;;;;;11.73;100.00;98487.24;1651499;87;21011;-79
2021/09/19 05:28:25;;;;;;;4.50;3.02;;;;;;;11.76;100.00;98485.75;1651374;86;21022;-79
2021/09/19 05:30:52;;;;;;;5.05;2.75;;;;;;;11.80;100.00;98482.56;1651351;87;21550;-77
2021/09/19 05:33:19;;;;;;;4.75;3.17;;;;;;;11.85;100.00;98480.94;1651427;86;21175;-77
2021/09/19 05:35:46;;;;;;;6.10;3.05;;;;;;;11.86;100.00;98479.21;1651082;86;21051;-79
2021/09/19 05:38:13;;;;;;;3.87;3.12;;;;;;;11.89;100.00;98481.84;1643407;86;22191;-79
2021/09/19 05:40:41;;;;;;;4.22;2.90;;;;;;;11.94;100.00;98478.03;1632052;86;21079;-79
2021/09/19 05:43:07;;;;;;;6.05;3.15;;;;;;;11.99;100.00;98481.91;1622439;87;21023;-75
2021/09/19 05:45:34;;;;;;;3.60;3.22;;;;;;;12.03;100.00;98479.48;1619611;86;21478;-78
2021/09/19 05:48:01;;;;;;;6.28;3.95;;;;;;;12.07;100.00;98480.38;1633696;86;21231;-76
2021/09/19 05:50:30;;;;;;;4.40;3.10;;;;;;;12.09;100.00;98475.91;1633067;85;21511;-76
2021/09/19 05:52:56;;;;;;;6.95;3.37;;;;;;;12.14;100.00;98475.05;1648489;85;21035;-76
2021/09/19 05:55:25;;;;;;;5.00;3.80;;;;;;;12.20;100.00;98470.09;1635642;86;21029;-78
2021/09/19 05:57:53;;;;;;;5.55;3.47;;;;;;;12.28;100.00;98476.01;1639929;86;21047;-78
2021/09/19 06:00:20;;;;;;;5.37;3.72;;;;;;;12.36;100.00;98468.16;1636011;86;21071;-77
2021/09/19 06:02:49;;;;;;;6.75;3.50;;;;;;;12.45;100.00;98467.42;1638408;86;21968;-76
2021/09/19 06:05:16;;;;;;;5.55;3.60;;;;;;;12.56;100.00;98467.12;1640810;86;21072;-76
2021/09/19 06:07:45;;;;;;;5.22;3.80;;;;;;;12.63;100.00;98469.25;1644422;86;21643;-77
2021/09/19 06:10:13;;;;;;;8.53;4.80;;;;;;;12.72;100.00;98459.41;1649704;86;21526;-77
2021/09/19 06:12:41;;;;;;;8.38;4.33;;;;;;;12.78;100.00;98457.41;1638751;86;21530;-77
2021/09/19 06:15:10;;;;;;;6.20;4.55;;;;;;;12.81;100.00;98460.83;1643454;85;21090;-74
2021/09/19 06:17:38;;;;;;;7.90;4.20;;;;;;;12.86;100.00;98461.94;1641909;86;21530;-76
2021/09/19 06:20:06;;;;;;;7.53;4.97;;;;;;;12.93;100.00;98459.13;1652189;85;21110;-78
2021/09/19 06:22:34;;;;;;;7.75;4.47;;;;;;;13.00;100.00;98457.34;1619811;88;21110;-80
2021/09/19 06:25:03;;;;;;;6.62;5.08;;;;;;;13.06;100.00;98458.67;1598273;87;21195;-78
2021/09/19 06:27:32;;;;;;;9.75;6.10;;;;;;;13.12;100.00;98456.44;1631224;87;21546;-77
2021/09/19 06:29:59;;;;;;;9.15;6.45;;;;;;;13.18;100.00;98453.66;1628666;87;21656;-75
2021/09/19 06:32:25;;;;;;;14.43;6.90;;;;;;;13.24;100.00;98459.69;1634571;87;21100;-75
2021/09/19 06:34:52;;;;;;;9.38;6.67;;;;;;;13.27;100.00;98458.39;1626319;86;21222;-77
2021/09/19 06:37:19;;;;;;;13.35;7.90;;;;;;;13.30;100.00;98460.39;1649556;85;21015;-75
2021/09/19 06:39:45;;;;;;;10.03;7.17;;;;;;;13.36;100.00;98459.54;1654090;86;20991;-75
2021/09/19 06:42:13;;;;;;;11.70;6.25;;;;;;;13.45;100.00;98457.38;1654648;86;21035;-75
2021/09/19 06:44:40;;;;;;;8.18;6.30;;;;;;;13.55;100.00;98449.34;1656105;85;21076;-75
2021/09/19 06:47:08;;;;;;;9.78;6.28;;;;;;;13.67;100.00;98448.40;1641399;85;21035;-75
2021/09/19 06:49:35;;;;;;;10.65;6.03;;;;;;;13.78;100.00;98448.63;1652263;85;21700;-75
2021/09/19 06:52:02;;;;;;;8.88;5.75;;;;;;;13.87;100.00;98447.20;1642561;86;21526;-76
2021/09/19 06:54:30;;;;;;;6.67;5.30;;;;;;;13.96;100.00;98446.98;1646444;86;21123;-77
2021/09/19 06:56:58;;;;;;;8.98;5.55;;;;;;;13.97;100.00;98451.34;1646598;86;21080;-76
2021/09/19 06:59:26;;;;;;;8.95;5.30;;;;;;;13.98;100.00;98449.38;1642991;85;21086;-77
2021/09/19 07:01:53;;;;;;;9.95;5.45;;;;;;;13.99;100.00;98446.84;1671375;84;21550;-76
2021/09/19 07:04:21;;;;;;;6.92;5.60;;;;;;;13.99;100.00;98445.46;1670116;83;21024;-76
2021/09/19 07:06:47;;;;;;;10.32;6.35;;;;;;;13.97;100.00;98446.41;1660562;84;21114;-75
2021/09/19 07:09:15;;;;;;;7.67;6.20;;;;;;;13.96;100.00;98450.33;1637225;86;21538;-77
2021/09/19 07:11:42;;;;;;;8.58;5.70;;;;;;;13.96;100.00;98443.42;1645168;86;21121;-76
2021/09/19 07:14:09;;;;;;;7.83;5.83;;;;;;;13.95;100.00;98445.97;1645976;86;21073;-78
2021/09/19 07:16:37;;;;;;;7.87;5.87;;;;;;;13.93;100.00;98440.02;1652798;86;21170;-76
2021/09/19 07:19:03;;;;;;;13.10;7.75;;;;;;;13.92;100.00;98448.08;1661827;86;21028;-77
2021/09/19 07:21:32;;;;;;;11.22;8.73;;;;;;;13.96;100.00;98443.42;1655116;85;21020;-76
2021/09/19 07:23:59;;;;;;;12.43;7.33;;;;;;;14.03;100.00;98447.70;1659307;86;21997;-78
2021/09/19 07:26:25;;;;;;;13.20;9.00;;;;;;;14.08;100.00;98447.41;1657205;85;21532;-76
2021/09/19 07:28:52;;;;;;;9.83;7.55;;;;;;;14.12;100.00;98447.70;1661385;86;21067;-77
2021/09/19 07:31:20;;;;;;;10.72;6.28;;;;;;;14.18;100.00;98453.72;1655922;86;21021;-76
2021/09/19 07:33:47;;;;;;;11.43;7.58;;;;;;;14.23;100.00;98452.62;1656891;85;21604;-79
2021/09/19 07:36:14;;;;;;;10.10;6.25;;;;;;;14.28;100.00;98447.59;1659090;85;21785;-77
2021/09/19 07:38:41;;;;;;;7.50;5.70;;;;;;;14.36;100.00;98447.94;1616760;86;21523;-77
2021/09/19 07:41:08;;;;;;;8.50;6.35;;;;;;;14.53;100.00;98447.45;1652002;84;21097;-78
2021/09/19 07:43:35;;;;;;;8.30;6.37;;;;;;;14.77;100.00;98451.02;1645312;86;21020;-77
2021/09/19 07:46:04;;;;;;;9.60;7.70;;;;;;;15.00;99.75;98446.84;1641611;86;21070;-79
2021/09/19 07:48:31;;;;;;;8.88;5.90;;;;;;;15.15;96.67;98449.42;1609390;88;21802;-78
2021/09/19 07:50:59;;;;;;;6.58;5.45;;;;;;;15.25;96.34;98442.45;1592592;89;21670;-78
2021/09/19 07:53:26;;;;;;;8.63;4.92;;;;;;;15.36;95.41;98444.78;1614434;87;21084;-77
2021/09/19 07:55:52;;;;;;;8.90;6.15;;;;;;;15.44;94.34;98446.48;1642943;86;21114;-77
2021/09/19 07:58:19;;;;;;;6.12;5.05;;;;;;;15.47;92.64;98448.50;1657261;86;21095;-76
2021/09/19 08:00:46;;;;;;;6.95;4.90;;;;;;;15.44;91.62;98445.69;1654016;86;21579;-77
2021/09/19 08:03:13;;;;;;;6.37;4.80;;;;;;;15.44;92.32;98444.30;1608974;87;21746;-77
2021/09/19 08:05:40;;;;;;;5.42;4.58;;;;;;;15.36;88.65;98442.02;1602715;88;21069;-77
2021/09/19 08:08:06;;;;;;;8.03;5.25;;;;;;;15.25;88.16;98444.42;1603609;89;21098;-73
2021/09/19 08:10:32;;;;;;;5.50;4.90;;;;;;;15.08;88.09;98442.98;1604274;89;21109;-76
2021/09/19 08:12:59;;;;;;;6.90;5.03;;;;;;;14.95;87.42;98449.92;1604069;89;21052;-78
2021/09/19 08:15:26;;;;;;;5.85;4.83;;;;;;;14.82;87.95;98452.88;1602950;89;21089;-78
2021/09/19 08:17:53;;;;;;;5.28;4.28;;;;;;;14.72;88.32;98454.89;1602878;89;21080;-79
2021/09/19 08:20:21;;;;;;;5.17;4.60;;;;;;;14.64;87.13;98450.99;1603246;89;21126;-73
2021/09/19 08:22:47;;;;;;;5.17;4.55;;;;;;;14.61;86.59;98448.96;1603454;89;21001;-74
2021/09/19 08:25:14;;;;;;;4.87;4.37;;;;;;;14.59;87.56;98454.86;1597150;89;21256;-78
2021/09/19 08:27:41;;;;;;;6.35;4.62;;;;;;;14.61;86.75;98449.77;1602791;88;21016;-75
2021/09/19 08:30:13;;;;;;;4.75;4.28;;;;;;;14.64;87.24;98445.47;1635725;85;21105;-78
2021/09/19 08:32:40;;;;;;;7.53;5.00;;;;;;;14.69;87.25;98447.92;1632738;87;21151;-74
2021/09/19 08:35:09;;;;;;;5.58;4.80;;;;;;;14.73;86.87;98450.95;1628909;87;21570;-76
2021/09/19 08:37:36;;;;;;;6.05;4.58;;;;;;;14.75;86.08;98447.24;1635879;86;21983;-75
2021/09/19 08:40:07;;;;;;;7.70;5.05;;;;;;;14.78;85.57;98449.84;1605577;87;21789;-79
2021/09/19 08:42:33;;;;;;;3.77;3.37;;;;;;;14.82;86.09;98463.94;1611947;88;21040;-78
2021/09/19 08:45:00;;;;;;;3.42;3.10;;;;;;;14.85;86.11;98465.16;1645461;85;21499;-79
2021/09/19 08:47:30;;;;;;;3.35;2.80;;;;;;;14.81;85.98;98463.72;1653688;85;21058;-79
2021/09/19 08:49:58;;;;;;;3.42;2.87;;;;;;;14.79;86.71;98477.10;1630846;86;21266;-78
2021/09/19 08:52:25;;;;;;;3.12;2.80;;;;;;;14.83;86.74;98473.02;1624424;88;21054;-78
2021/09/19 08:54:51;;;;;;;6.28;2.30;;;;;;;14.95;86.30;98473.41;1620525;88;21125;-78
2021/09/19 08:57:18;;;;;;;2.22;1.80;;;;;;;15.06;86.93;98478.49;1622408;88;21122;-77
2021/09/19 08:59:49;;;;;;;4.12;1.67;;;;;;;15.15;84.82;98475.68;1649509;84;21122;-78
2021/09/19 09:02:16;;;;;;;1.60;1.50;;;;;;;15.23;85.07;98476.59;1644752;86;21060;-78
2021/09/19 09:04:44;;;;;;;2.50;1.25;;;;;;;15.31;83.38;98469.20;1642894;86;21074;-79
2021/09/19 09:07:13;;;;;;;1.42;1.20;;;;;;;15.38;83.38;98475.63;1650333;85;20969;-74
2021/09/19 09:09:54;;;;;;;1.57;1.10;;;;;;;15.62;82.83;98474.38;1650006;85;21132;-79
2021/09/19 09:12:24;;;;;;;1.02;0.93;;;;;;;16.01;82.20;98469.34;1652558;85;21626;-77
2021/09/19 09:14:54;;;;;;;1.02;0.90;;;;;;;16.34;80.26;98470.47;1653826;86;21174;-79
2021/09/19 09:17:27;;;;;;;1.00;0.90;;;;;;;16.47;80.09;98465.67;1653994;86;21827;-78
2021/09/19 09:19:58;;;;;;;1.52;0.90;;;;;;;16.55;77.53;98468.51;1645865;85;21148;-79
2021/09/19 09:22:31;;;;;;;1.23;0.80;;;;;;;16.39;77.12;98481.21;1625250;87;21564;-79
2021/09/19 09:25:13;;;;;;;0.90;0.73;;;;;;;16.14;75.83;98475.42;1654009;86;21013;-73
2021/09/19 09:27:43;;;;;;;;;;;;;;;15.79;76.64;98479.36;1639432;85;21301;-75
2021/09/19 09:30:25;;;;;;;1.98;0.78;;;;;;;15.32;76.23;98483.23;1648965;86;20123;-80
2021/09/19 09:33:04;;;;;;;1.60;0.62;;;;;;;15.02;78.44;98488.11;1656761;85;21004;-74
2021/09/19 09:35:37;;;;;;;0.20;0.20;;;;;;;14.89;78.59;98492.27;1656543;85;21047;-77
2021/09/19 09:38:24;;;;;;;0.53;0.40;;;;;;;14.80;78.52;98486.98;1659657;85;21527;-73
2021/09/19 09:40:52;;;;;;;0.50;0.40;;;;;;;14.84;79.93;98488.43;1656373;86;21205;-81
2021/09/19 09:43:19;;;;;;;0.33;0.30;;;;;;;14.87;77.88;98493.22;1628009;86;21693;-78
2021/09/19 09:45:49;;;;;;;0.45;0.30;;;;;;;14.88;77.38;98493.43;1655268;86;21462;-69
2021/09/19 09:48:31;;;;;;;0.20;0.20;;;;;;;14.89;78.14;98488.70;1654623;86;20951;-70
2021/09/19 09:51:01;;;;;;;1.12;0.60;;;;;;;14.91;77.57;98501.56;1654261;86;21466;-70
2021/09/19 09:53:27;;;;;;;0.30;0.30;;;;;;;14.91;78.19;98497.42;1654632;86;21110;-71
2021/09/19 09:55:59;;;;;;;2.37;0.50;;;;;;;14.88;78.45;98496.20;1654364;86;20939;-71
2021/09/19 09:58:26;;;;;;;1.82;0.35;;;;;;;14.84;77.48;98505.80;1654446;86;21529;-71
2021/09/19 10:00:54;;;;;;;2.25;0.30;;;;;;;14.74;77.99;98500.09;1654265;86;21636;-73
2021/09/19 10:03:21;;;;;;;1.25;0.50;;;;;;;14.67;78.84;98501.35;1654473;86;20948;-72
2021/09/19 10:05:49;;;;;;;1.12;0.30;;;;;;;14.63;79.09;98499.11;1654443;86;21157;-74
2021/09/19 10:08:15;;;;;;;0.57;0.20;;;;;;;14.56;79.66;98503.12;1654445;86;21642;-73
2021/09/19 10:10:44;;;;;;;1.32;0.40;;;;;;;14.51;80.17;98500.88;1654610;86;21581;-71
2021/09/19 10:13:14;;;;;;;1.15;0.37;;;;;;;14.43;80.80;98498.38;1654263;85;21510;-71
2021/09/19 10:15:43;;;;;;;0.50;0.50;;;;;;;14.35;81.15;98505.70;1654851;86;20884;-71
2021/09/19 10:18:10;;;;;;;1.02;0.40;;;;;;;14.24;80.58;98507.45;1655154;86;21847;-73
2021/09/19 10:20:41;;;;;;;0.45;0.45;;;;;;;14.13;81.51;98508.63;1654476;86;21499;-74
2021/09/19 10:23:22;;;;;;;0.50;0.30;;;;;;;14.12;82.68;98510.38;1654459;86;20923;-72
2021/09/19 10:26:08;;;;;;;0.53;0.40;;;;;;;14.12;83.34;98508.99;1654848;86;21491;-72
2021/09/19 10:28:40;;;;;;;1.07;0.35;;;;;;;14.10;83.98;98512.11;1654588;86;21051;-74
2021/09/19 10:31:17;;;;;;;0.47;0.30;;;;;;;14.06;84.39;98515.97;1654776;86;21427;-76
2021/09/19 10:33:49;;;;;;;1.32;0.50;;;;;;;13.98;84.56;98518.36;1654467;86;20959;-72
2021/09/19 10:36:37;;;;;;;1.07;0.60;;;;;;;13.88;84.79;98516.98;1654576;86;20975;-79
2021/09/19 10:39:26;;;;;;;1.15;0.47;;;;;;;13.77;86.02;98518.73;1654587;86;20964;-72
2021/09/19 10:42:25;;;;;;;0.70;0.47;;;;;;;13.76;87.07;98522.66;1654567;86;20928;-72
2021/09/19 10:44:55;;;;;;;0.60;0.40;;;;;;;13.78;87.90;98518.38;1654796;84;21434;-70
2021/09/19 10:47:31;;;;;;;0.53;0.50;;;;;;;13.76;88.56;98522.08;1654118;85;20900;-71
2021/09/19 10:50:22;;;;;;;1.50;0.60;;;;;;;13.80;88.34;98520.19;1651607;86;20998;-73
2021/09/19 10:52:58;;;;;;;1.47;0.70;;;;;;;13.84;89.20;98513.38;1658459;85;20971;-74
2021/09/19 10:55:36;;;;;;;1.52;0.88;;;;;;;13.87;89.01;98516.76;1656982;85;21054;-80
2021/09/19 10:58:13;;;;;;;1.00;0.60;;;;;;;13.85;88.23;98513.02;1654424;85;20961;-81
2021/09/19 11:00:43;;;;;;;2.33;0.50;;;;;;;13.78;88.77;98519.75;1632598;86;21095;-80
2021/09/19 11:03:18;;;;;;;0.65;0.60;;;;;;;13.75;89.42;98518.30;1655120;86;20961;-80
2021/09/19 11:05:50;;;;;;;1.25;0.50;;;;;;;13.66;90.02;98517.70;1652495;86;21029;-79
2021/09/19 11:08:25;;;;;;;0.50;0.50;;;;;;;13.65;91.05;98513.35;1654166;86;20929;-79
2021/09/19 11:11:02;;;;;;;1.17;0.60;;;;;;;13.66;91.41;98511.61;1655068;86;21090;-70
2021/09/19 11:13:41;;;;;;;1.17;0.68;;;;;;;13.67;91.73;98516.55;1658165;84;21023;-73
2021/09/19 11:16:21;;;;;;;0.60;0.50;;;;;;;13.65;91.33;98508.63;1678655;84;20963;-76
2021/09/19 11:18:54;;;;;;;0.40;0.37;;;;;;;13.63;89.43;98508.77;1670153;84;21132;-79
2021/09/19 11:21:28;;;;;;;0.90;0.30;;;;;;;13.56;87.96;98508.04;1647312;84;21569;-73
2021/09/19 11:24:04;;;;;;;2.87;0.70;;;;;;;13.45;86.89;98498.73;1605916;86;21139;-73
2021/09/19 11:26:41;;;;;;;1.80;0.80;;;;;;;13.39;86.89;98504.30;1580409;88;21032;-75
2021/09/19 11:29:23;;;;;;;1.72;0.80;;;;;;;13.36;85.99;98500.30;1593657;87;21066;-79
2021/09/19 11:31:50;;;;;;;0.60;0.42;;;;;;;13.33;85.80;98507.11;1603951;88;21621;-77
2021/09/19 11:34:21;;;;;;;2.10;0.80;;;;;;;13.28;86.53;98503.28;1646942;85;21648;-77
2021/09/19 11:36:57;;;;;;;0.50;0.45;;;;;;;13.26;87.42;98506.41;1652950;86;21140;-77